Airfield :
LOGIN :

Register | Disclaimer

   EN    FR    IT 

 










Legend :    VFR   Marginal VFR   IFR   Intensive IFR   Very Intensive IFR
Visi :
Ceiling :
>= 8 km
>= 3000ft
5 to 8 km
1000 to 3000 ft
1500m to 5 km
500 to 1000 ft
800 to 1500m
200 to 500 ft
< 800m
< 200 ft
Symbols :   Thunderstorms  Fog  Heavy snow  Heavy precipitations  Wind > 20 kt
SIGMETs :     Misc.  Thunderstorms  Icing  Turbulence  Mountain Waves  Volcanic Ashes






- Airport Elevation : 280 ft
- IATA code : FAE


EKVG - Vagar

CURRENT METAR :
  • 271150Z 26014KT 9999 SCT020 BKN045 09/03 Q1031

EXPIRED METARs :
  • 271120Z 26013KT 9999 FEW014 SCT020 BKN045 09/05 Q1031
  • 271050Z 26016KT 9000 -SHRA FEW012 BKN015TCU BKN040 08/05 Q1031
  • 271020Z 25015KT 9999 FEW012 SCT018 BKN040 09/05 Q1031
  • 270950Z 27015KT 9999 SCT018 BKN040 09/05 Q1031
  • 270923Z 26015KT 9999 FEW012 SCT018 BKN030 09/05 Q1030

TAF TAF EKVG
Valid from the 27 at 12:00 until the 27 at 21:00 UTC


271128Z 2712/2721 24013KT 9999 FEW015 SCT020 BKN035
TEMPO 2718/2721 4500 DZ BR BKN010 OVC014



MET'MAP, your aeronautical weather chart ! - Copyright ORBIFLY December 2007 - Disclaimer

ORBIFLY MET'MAP TEAM :

Programming & Development : Alexandra Zaïnal
Concept & original design : Baudouin d'Aumeries
Assistance for programming : Marc-Olivier Méhu
Technical & hardware support : Manuel Goepfert

Contact : metmap@orbifly.com




SOURCES & CREDITS :

   NOAA